sensor_id;sensor_type;location;lat;lon;timestamp;temperature;humidity
24730;DHT22;12832;52.392;13.066;2023-06-22T00:02:22;29.30;51.20
24730;DHT22;12832;52.392;13.066;2023-06-22T00:04:48;29.30;51.20
24730;DHT22;12832;52.392;13.066;2023-06-22T00:07:15;29.30;51.30
24730;DHT22;12832;52.392;13.066;2023-06-22T00:09:41;29.30;51.20
24730;DHT22;12832;52.392;13.066;2023-06-22T00:12:07;29.30;51.20
24730;DHT22;12832;52.392;13.066;2023-06-22T00:14:34;29.30;51.20
24730;DHT22;12832;52.392;13.066;2023-06-22T00:17:00;29.30;51.20
24730;DHT22;12832;52.392;13.066;2023-06-22T00:19:26;29.30;51.80
24730;DHT22;12832;52.392;13.066;2023-06-22T00:21:52;29.30;51.20
24730;DHT22;12832;52.392;13.066;2023-06-22T00:24:20;29.30;51.20
24730;DHT22;12832;52.392;13.066;2023-06-22T00:26:47;29.30;51.20
24730;DHT22;12832;52.392;13.066;2023-06-22T00:29:13;29.30;51.20
24730;DHT22;12832;52.392;13.066;2023-06-22T00:31:39;29.30;51.10
24730;DHT22;12832;52.392;13.066;2023-06-22T00:34:06;29.30;51.20
24730;DHT22;12832;52.392;13.066;2023-06-22T00:36:35;29.30;51.10
24730;DHT22;12832;52.392;13.066;2023-06-22T00:39:02;29.30;51.10
24730;DHT22;12832;52.392;13.066;2023-06-22T00:41:28;29.30;51.10
24730;DHT22;12832;52.392;13.066;2023-06-22T00:43:55;29.30;51.10
24730;DHT22;12832;52.392;13.066;2023-06-22T00:46:22;29.30;51.10
24730;DHT22;12832;52.392;13.066;2023-06-22T00:48:50;29.30;51.20
24730;DHT22;12832;52.392;13.066;2023-06-22T00:51:16;29.30;51.20
24730;DHT22;12832;52.392;13.066;2023-06-22T00:53:42;29.30;51.10
24730;DHT22;12832;52.392;13.066;2023-06-22T00:56:10;29.30;51.10
24730;DHT22;12832;52.392;13.066;2023-06-22T00:58:39;29.30;51.10
24730;DHT22;12832;52.392;13.066;2023-06-22T01:01:08;29.30;51.20
24730;DHT22;12832;52.392;13.066;2023-06-22T01:03:34;29.30;51.10
24730;DHT22;12832;52.392;13.066;2023-06-22T01:06:10;29.30;51.10
24730;DHT22;12832;52.392;13.066;2023-06-22T01:08:57;29.30;51.10
24730;DHT22;12832;52.392;13.066;2023-06-22T01:11:32;29.30;51.10
24730;DHT22;12832;52.392;13.066;2023-06-22T01:14:08;29.30;51.10
24730;DHT22;12832;52.392;13.066;2023-06-22T01:16:37;29.30;51.10
24730;DHT22;12832;52.392;13.066;2023-06-22T01:19:29;29.30;51.10
24730;DHT22;12832;52.392;13.066;2023-06-22T01:22:01;29.30;51.00
24730;DHT22;12832;52.392;13.066;2023-06-22T01:27:53;29.30;51.00
24730;DHT22;12832;52.392;13.066;2023-06-22T01:30:22;29.30;51.10
24730;DHT22;12832;52.392;13.066;2023-06-22T01:32:54;29.30;51.10
24730;DHT22;12832;52.392;13.066;2023-06-22T01:35:21;29.30;51.10
24730;DHT22;12832;52.392;13.066;2023-06-22T01:37:48;29.30;51.10
24730;DHT22;12832;52.392;13.066;2023-06-22T01:40:15;29.40;51.20
24730;DHT22;12832;52.392;13.066;2023-06-22T01:42:41;29.40;51.10
24730;DHT22;12832;52.392;13.066;2023-06-22T01:45:10;29.30;51.10
24730;DHT22;12832;52.392;13.066;2023-06-22T01:47:37;29.30;51.00
24730;DHT22;12832;52.392;13.066;2023-06-22T01:50:04;29.30;51.10
24730;DHT22;12832;52.392;13.066;2023-06-22T01:52:31;29.30;51.10
24730;DHT22;12832;52.392;13.066;2023-06-22T01:55:00;29.30;51.10
24730;DHT22;12832;52.392;13.066;2023-06-22T01:57:27;29.30;51.00
24730;DHT22;12832;52.392;13.066;2023-06-22T02:00:02;29.30;51.00
24730;DHT22;12832;52.392;13.066;2023-06-22T02:02:37;29.30;51.00
24730;DHT22;12832;52.392;13.066;2023-06-22T02:05:09;29.30;51.70
24730;DHT22;12832;52.392;13.066;2023-06-22T02:07:46;29.30;51.20
24730;DHT22;12832;52.392;13.066;2023-06-22T02:10:15;29.30;51.30
24730;DHT22;12832;52.392;13.066;2023-06-22T02:12:43;29.30;51.30
24730;DHT22;12832;52.392;13.066;2023-06-22T02:15:11;29.30;51.40
24730;DHT22;12832;52.392;13.066;2023-06-22T02:17:38;29.30;52.10
24730;DHT22;12832;52.392;13.066;2023-06-22T02:20:05;29.30;51.40
24730;DHT22;12832;52.392;13.066;2023-06-22T02:22:34;29.20;51.40
24730;DHT22;12832;52.392;13.066;2023-06-22T02:25:00;29.30;51.40
24730;DHT22;12832;52.392;13.066;2023-06-22T02:27:26;29.20;51.40
24730;DHT22;12832;52.392;13.066;2023-06-22T02:29:52;29.20;51.40
24730;DHT22;12832;52.392;13.066;2023-06-22T02:32:18;29.20;51.40
24730;DHT22;12832;52.392;13.066;2023-06-22T02:34:45;29.20;51.40
24730;DHT22;12832;52.392;13.066;2023-06-22T02:37:16;29.20;51.40
24730;DHT22;12832;52.392;13.066;2023-06-22T02:39:43;29.20;51.40
24730;DHT22;12832;52.392;13.066;2023-06-22T02:42:09;29.20;51.40
24730;DHT22;12832;52.392;13.066;2023-06-22T02:44:38;29.20;51.40
24730;DHT22;12832;52.392;13.066;2023-06-22T02:47:05;29.20;52.00
24730;DHT22;12832;52.392;13.066;2023-06-22T02:49:31;29.20;51.40
24730;DHT22;12832;52.392;13.066;2023-06-22T02:51:57;29.20;51.40
24730;DHT22;12832;52.392;13.066;2023-06-22T02:54:24;29.20;51.40
24730;DHT22;12832;52.392;13.066;2023-06-22T02:56:50;29.20;51.50
24730;DHT22;12832;52.392;13.066;2023-06-22T02:59:16;29.20;51.40
24730;DHT22;12832;52.392;13.066;2023-06-22T03:01:43;29.20;51.40
24730;DHT22;12832;52.392;13.066;2023-06-22T03:04:09;29.20;51.40
24730;DHT22;12832;52.392;13.066;2023-06-22T03:06:36;29.20;51.40
24730;DHT22;12832;52.392;13.066;2023-06-22T03:09:04;29.20;51.40
24730;DHT22;12832;52.392;13.066;2023-06-22T03:11:31;29.10;51.40
24730;DHT22;12832;52.392;13.066;2023-06-22T03:13:58;29.20;51.40
24730;DHT22;12832;52.392;13.066;2023-06-22T03:16:25;29.10;51.30
24730;DHT22;12832;52.392;13.066;2023-06-22T03:18:51;29.20;51.40
24730;DHT22;12832;52.392;13.066;2023-06-22T03:21:21;29.10;51.30
24730;DHT22;12832;52.392;13.066;2023-06-22T03:23:48;29.10;51.30
24730;DHT22;12832;52.392;13.066;2023-06-22T03:26:17;29.10;51.30
24730;DHT22;12832;52.392;13.066;2023-06-22T03:28:43;29.10;51.30
24730;DHT22;12832;52.392;13.066;2023-06-22T03:31:10;29.10;51.30
24730;DHT22;12832;52.392;13.066;2023-06-22T03:33:36;29.10;51.30
24730;DHT22;12832;52.392;13.066;2023-06-22T03:36:02;29.10;51.30
24730;DHT22;12832;52.392;13.066;2023-06-22T03:38:29;29.10;51.30
24730;DHT22;12832;52.392;13.066;2023-06-22T03:40:55;29.10;51.30
24730;DHT22;12832;52.392;13.066;2023-06-22T03:43:22;29.10;51.30
24730;DHT22;12832;52.392;13.066;2023-06-22T03:45:49;29.10;51.30
24730;DHT22;12832;52.392;13.066;2023-06-22T03:48:15;29.10;51.30
24730;DHT22;12832;52.392;13.066;2023-06-22T03:50:41;29.10;51.40
24730;DHT22;12832;52.392;13.066;2023-06-22T03:53:07;29.10;51.30
24730;DHT22;12832;52.392;13.066;2023-06-22T03:55:34;29.10;51.40
24730;DHT22;12832;52.392;13.066;2023-06-22T03:58:00;29.10;51.40
24730;DHT22;12832;52.392;13.066;2023-06-22T04:00:32;29.10;51.40
24730;DHT22;12832;52.392;13.066;2023-06-22T04:02:58;29.10;51.40
24730;DHT22;12832;52.392;13.066;2023-06-22T04:05:24;29.10;51.40
24730;DHT22;12832;52.392;13.066;2023-06-22T04:07:51;29.10;51.40
24730;DHT22;12832;52.392;13.066;2023-06-22T04:10:17;29.00;51.40
24730;DHT22;12832;52.392;13.066;2023-06-22T04:12:45;29.00;51.50
24730;DHT22;12832;52.392;13.066;2023-06-22T04:15:11;29.00;51.40
24730;DHT22;12832;52.392;13.066;2023-06-22T04:17:38;29.00;51.40
24730;DHT22;12832;52.392;13.066;2023-06-22T04:20:04;29.00;51.50
24730;DHT22;12832;52.392;13.066;2023-06-22T04:22:31;29.00;51.50
24730;DHT22;12832;52.392;13.066;2023-06-22T04:24:57;29.00;51.50
24730;DHT22;12832;52.392;13.066;2023-06-22T04:27:23;29.00;51.50
24730;DHT22;12832;52.392;13.066;2023-06-22T04:29:49;29.00;51.50
24730;DHT22;12832;52.392;13.066;2023-06-22T04:32:17;29.00;51.40
24730;DHT22;12832;52.392;13.066;2023-06-22T04:34:44;29.10;51.50
24730;DHT22;12832;52.392;13.066;2023-06-22T04:37:10;29.00;51.40
24730;DHT22;12832;52.392;13.066;2023-06-22T04:39:42;29.00;51.40
24730;DHT22;12832;52.392;13.066;2023-06-22T04:42:09;29.00;51.50
24730;DHT22;12832;52.392;13.066;2023-06-22T04:44:35;29.00;51.50
24730;DHT22;12832;52.392;13.066;2023-06-22T04:47:01;29.10;51.50
24730;DHT22;12832;52.392;13.066;2023-06-22T04:49:30;29.00;51.50
24730;DHT22;12832;52.392;13.066;2023-06-22T04:52:05;29.00;51.50
24730;DHT22;12832;52.392;13.066;2023-06-22T04:54:31;29.00;51.50
24730;DHT22;12832;52.392;13.066;2023-06-22T04:57:02;29.00;51.50
24730;DHT22;12832;52.392;13.066;2023-06-22T04:59:29;29.10;51.50
24730;DHT22;12832;52.392;13.066;2023-06-22T05:01:57;29.00;51.50
24730;DHT22;12832;52.392;13.066;2023-06-22T05:04:25;29.00;51.50
24730;DHT22;12832;52.392;13.066;2023-06-22T05:06:52;29.00;51.50
24730;DHT22;12832;52.392;13.066;2023-06-22T05:09:18;28.90;51.60
24730;DHT22;12832;52.392;13.066;2023-06-22T05:11:45;28.90;51.70
24730;DHT22;12832;52.392;13.066;2023-06-22T05:14:12;28.90;51.80
24730;DHT22;12832;52.392;13.066;2023-06-22T05:16:38;28.90;51.80
24730;DHT22;12832;52.392;13.066;2023-06-22T05:19:05;28.80;51.90
24730;DHT22;12832;52.392;13.066;2023-06-22T05:21:31;28.70;51.80
24730;DHT22;12832;52.392;13.066;2023-06-22T05:23:58;28.70;51.90
24730;DHT22;12832;52.392;13.066;2023-06-22T05:26:33;28.70;52.00
24730;DHT22;12832;52.392;13.066;2023-06-22T05:29:01;28.70;52.00
24730;DHT22;12832;52.392;13.066;2023-06-22T05:31:28;28.70;52.00
24730;DHT22;12832;52.392;13.066;2023-06-22T05:33:55;28.70;52.10
24730;DHT22;12832;52.392;13.066;2023-06-22T05:36:22;28.70;52.10
24730;DHT22;12832;52.392;13.066;2023-06-22T05:38:52;28.70;52.00
24730;DHT22;12832;52.392;13.066;2023-06-22T05:41:18;28.60;52.00
24730;DHT22;12832;52.392;13.066;2023-06-22T05:43:45;28.60;52.00
24730;DHT22;12832;52.392;13.066;2023-06-22T05:46:11;28.60;52.00
24730;DHT22;12832;52.392;13.066;2023-06-22T05:48:37;28.60;52.00
24730;DHT22;12832;52.392;13.066;2023-06-22T05:51:03;28.60;52.10
24730;DHT22;12832;52.392;13.066;2023-06-22T05:53:29;28.60;52.20
24730;DHT22;12832;52.392;13.066;2023-06-22T05:55:56;28.60;52.20
24730;DHT22;12832;52.392;13.066;2023-06-22T05:58:22;28.60;52.20
24730;DHT22;12832;52.392;13.066;2023-06-22T06:00:48;28.50;52.20
24730;DHT22;12832;52.392;13.066;2023-06-22T06:03:14;28.60;52.20
24730;DHT22;12832;52.392;13.066;2023-06-22T06:05:43;28.50;52.20
24730;DHT22;12832;52.392;13.066;2023-06-22T06:08:10;28.60;52.20
24730;DHT22;12832;52.392;13.066;2023-06-22T06:10:37;28.50;52.10
24730;DHT22;12832;52.392;13.066;2023-06-22T06:13:03;28.60;52.10
24730;DHT22;12832;52.392;13.066;2023-06-22T06:15:31;28.50;52.00
24730;DHT22;12832;52.392;13.066;2023-06-22T06:17:58;28.50;51.90
24730;DHT22;12832;52.392;13.066;2023-06-22T06:20:26;28.50;51.90
24730;DHT22;12832;52.392;13.066;2023-06-22T06:22:54;28.50;51.90
24730;DHT22;12832;52.392;13.066;2023-06-22T06:25:20;28.50;51.90
24730;DHT22;12832;52.392;13.066;2023-06-22T06:27:49;28.50;51.80
24730;DHT22;12832;52.392;13.066;2023-06-22T06:30:17;28.50;51.80
24730;DHT22;12832;52.392;13.066;2023-06-22T06:32:44;28.50;51.90
24730;DHT22;12832;52.392;13.066;2023-06-22T06:35:13;28.40;51.90
24730;DHT22;12832;52.392;13.066;2023-06-22T06:37:41;28.50;52.00
24730;DHT22;12832;52.392;13.066;2023-06-22T06:40:08;28.50;51.90
24730;DHT22;12832;52.392;13.066;2023-06-22T06:42:40;28.50;51.90
24730;DHT22;12832;52.392;13.066;2023-06-22T06:45:08;28.50;51.60
24730;DHT22;12832;52.392;13.066;2023-06-22T06:47:35;28.50;51.50
24730;DHT22;12832;52.392;13.066;2023-06-22T06:50:01;28.50;51.40
24730;DHT22;12832;52.392;13.066;2023-06-22T06:52:27;28.40;51.30
24730;DHT22;12832;52.392;13.066;2023-06-22T06:54:54;28.50;51.20
24730;DHT22;12832;52.392;13.066;2023-06-22T06:57:20;28.50;51.20
24730;DHT22;12832;52.392;13.066;2023-06-22T06:59:46;28.40;51.20
24730;DHT22;12832;52.392;13.066;2023-06-22T07:02:14;28.50;51.20
24730;DHT22;12832;52.392;13.066;2023-06-22T07:04:41;28.40;51.20
24730;DHT22;12832;52.392;13.066;2023-06-22T07:07:07;28.40;51.30
24730;DHT22;12832;52.392;13.066;2023-06-22T07:09:33;28.50;51.30
24730;DHT22;12832;52.392;13.066;2023-06-22T07:11:59;28.50;51.30
24730;DHT22;12832;52.392;13.066;2023-06-22T07:14:25;28.40;51.10
24730;DHT22;12832;52.392;13.066;2023-06-22T07:16:52;28.50;51.00
24730;DHT22;12832;52.392;13.066;2023-06-22T07:19:24;28.40;50.90
24730;DHT22;12832;52.392;13.066;2023-06-22T07:21:52;28.40;50.90
24730;DHT22;12832;52.392;13.066;2023-06-22T07:24:18;28.40;50.80
24730;DHT22;12832;52.392;13.066;2023-06-22T07:26:47;28.40;50.80
24730;DHT22;12832;52.392;13.066;2023-06-22T07:29:14;28.40;50.80
24730;DHT22;12832;52.392;13.066;2023-06-22T07:31:40;28.40;50.90
24730;DHT22;12832;52.392;13.066;2023-06-22T07:34:07;28.40;50.90
24730;DHT22;12832;52.392;13.066;2023-06-22T07:36:33;28.40;50.90
24730;DHT22;12832;52.392;13.066;2023-06-22T07:39:02;28.40;51.00
24730;DHT22;12832;52.392;13.066;2023-06-22T07:41:30;28.40;50.90
24730;DHT22;12832;52.392;13.066;2023-06-22T07:43:56;28.50;50.90
24730;DHT22;12832;52.392;13.066;2023-06-22T07:46:23;28.40;50.80
24730;DHT22;12832;52.392;13.066;2023-06-22T07:48:49;28.40;50.70
24730;DHT22;12832;52.392;13.066;2023-06-22T07:51:15;28.40;50.60
24730;DHT22;12832;52.392;13.066;2023-06-22T07:53:43;28.40;50.60
24730;DHT22;12832;52.392;13.066;2023-06-22T07:56:13;28.40;50.60
24730;DHT22;12832;52.392;13.066;2023-06-22T07:58:39;28.40;50.50
24730;DHT22;12832;52.392;13.066;2023-06-22T08:01:06;28.40;50.50
24730;DHT22;12832;52.392;13.066;2023-06-22T08:03:35;28.40;50.40
24730;DHT22;12832;52.392;13.066;2023-06-22T08:06:02;28.40;50.40
24730;DHT22;12832;52.392;13.066;2023-06-22T08:08:28;28.40;50.40
24730;DHT22;12832;52.392;13.066;2023-06-22T08:10:54;28.40;50.40
24730;DHT22;12832;52.392;13.066;2023-06-22T08:13:21;28.40;50.40
24730;DHT22;12832;52.392;13.066;2023-06-22T08:15:47;28.40;50.50
24730;DHT22;12832;52.392;13.066;2023-06-22T08:18:16;28.40;50.40
24730;DHT22;12832;52.392;13.066;2023-06-22T08:20:42;28.40;50.40
24730;DHT22;12832;52.392;13.066;2023-06-22T08:23:08;28.40;50.40
24730;DHT22;12832;52.392;13.066;2023-06-22T08:25:35;28.40;50.40
24730;DHT22;12832;52.392;13.066;2023-06-22T08:28:04;28.40;50.40
24730;DHT22;12832;52.392;13.066;2023-06-22T08:30:31;28.40;50.40
24730;DHT22;12832;52.392;13.066;2023-06-22T08:32:57;28.40;50.40
24730;DHT22;12832;52.392;13.066;2023-06-22T08:35:24;28.40;50.40
24730;DHT22;12832;52.392;13.066;2023-06-22T08:37:50;28.30;50.30
24730;DHT22;12832;52.392;13.066;2023-06-22T08:40:20;28.40;50.40
24730;DHT22;12832;52.392;13.066;2023-06-22T08:42:47;28.40;50.40
24730;DHT22;12832;52.392;13.066;2023-06-22T08:45:14;28.40;50.30
24730;DHT22;12832;52.392;13.066;2023-06-22T08:47:41;28.40;50.30
24730;DHT22;12832;52.392;13.066;2023-06-22T08:50:09;28.40;50.30
24730;DHT22;12832;52.392;13.066;2023-06-22T08:52:36;28.40;50.30
24730;DHT22;12832;52.392;13.066;2023-06-22T08:55:03;28.40;50.30
24730;DHT22;12832;52.392;13.066;2023-06-22T08:57:30;28.40;50.30
24730;DHT22;12832;52.392;13.066;2023-06-22T08:59:59;28.40;50.20
24730;DHT22;12832;52.392;13.066;2023-06-22T09:02:26;28.40;50.10
24730;DHT22;12832;52.392;13.066;2023-06-22T09:04:59;28.40;50.00
24730;DHT22;12832;52.392;13.066;2023-06-22T09:07:26;28.40;50.00
24730;DHT22;12832;52.392;13.066;2023-06-22T09:09:53;28.40;49.90
24730;DHT22;12832;52.392;13.066;2023-06-22T09:12:20;28.40;49.80
24730;DHT22;12832;52.392;13.066;2023-06-22T09:14:48;28.40;49.70
24730;DHT22;12832;52.392;13.066;2023-06-22T09:17:14;28.30;49.60
24730;DHT22;12832;52.392;13.066;2023-06-22T09:19:40;28.40;49.60
24730;DHT22;12832;52.392;13.066;2023-06-22T09:22:07;28.40;49.60
24730;DHT22;12832;52.392;13.066;2023-06-22T09:24:33;28.40;49.50
24730;DHT22;12832;52.392;13.066;2023-06-22T09:26:59;28.40;49.50
24730;DHT22;12832;52.392;13.066;2023-06-22T09:29:25;28.40;49.50
24730;DHT22;12832;52.392;13.066;2023-06-22T09:31:51;28.40;49.30
24730;DHT22;12832;52.392;13.066;2023-06-22T09:34:20;28.40;49.40
24730;DHT22;12832;52.392;13.066;2023-06-22T09:36:47;28.40;49.50
24730;DHT22;12832;52.392;13.066;2023-06-22T09:39:13;28.40;49.50
24730;DHT22;12832;52.392;13.066;2023-06-22T09:41:40;28.40;49.50
24730;DHT22;12832;52.392;13.066;2023-06-22T09:44:06;28.40;49.50
24730;DHT22;12832;52.392;13.066;2023-06-22T09:46:32;28.40;49.50
24730;DHT22;12832;52.392;13.066;2023-06-22T09:48:59;28.40;49.40
24730;DHT22;12832;52.392;13.066;2023-06-22T09:51:25;28.40;49.50
24730;DHT22;12832;52.392;13.066;2023-06-22T09:53:52;28.40;49.50
24730;DHT22;12832;52.392;13.066;2023-06-22T09:56:20;28.40;49.50
24730;DHT22;12832;52.392;13.066;2023-06-22T09:58:46;28.40;49.50
24730;DHT22;12832;52.392;13.066;2023-06-22T10:01:13;28.40;49.50
24730;DHT22;12832;52.392;13.066;2023-06-22T10:03:42;28.40;49.50
24730;DHT22;12832;52.392;13.066;2023-06-22T10:06:08;28.40;49.60
24730;DHT22;12832;52.392;13.066;2023-06-22T10:08:35;28.40;49.50
24730;DHT22;12832;52.392;13.066;2023-06-22T10:11:03;28.40;49.50
24730;DHT22;12832;52.392;13.066;2023-06-22T10:13:29;28.30;49.40
24730;DHT22;12832;52.392;13.066;2023-06-22T10:15:55;28.40;49.50
24730;DHT22;12832;52.392;13.066;2023-06-22T10:18:22;28.40;49.50
24730;DHT22;12832;52.392;13.066;2023-06-22T10:20:49;28.40;49.50
24730;DHT22;12832;52.392;13.066;2023-06-22T10:23:20;28.40;49.50
24730;DHT22;12832;52.392;13.066;2023-06-22T10:25:46;28.40;49.50
24730;DHT22;12832;52.392;13.066;2023-06-22T10:28:16;28.40;49.50
24730;DHT22;12832;52.392;13.066;2023-06-22T10:30:42;28.40;49.50
24730;DHT22;12832;52.392;13.066;2023-06-22T10:33:09;28.40;49.50
24730;DHT22;12832;52.392;13.066;2023-06-22T10:35:37;28.40;49.40
24730;DHT22;12832;52.392;13.066;2023-06-22T10:38:06;28.40;49.40
24730;DHT22;12832;52.392;13.066;2023-06-22T10:40:34;28.40;49.30
24730;DHT22;12832;52.392;13.066;2023-06-22T10:43:00;28.40;49.40
24730;DHT22;12832;52.392;13.066;2023-06-22T10:45:26;28.40;49.40
24730;DHT22;12832;52.392;13.066;2023-06-22T10:47:54;28.40;49.40
24730;DHT22;12832;52.392;13.066;2023-06-22T10:50:20;28.40;49.40
24730;DHT22;12832;52.392;13.066;2023-06-22T10:52:46;28.40;49.40
24730;DHT22;12832;52.392;13.066;2023-06-22T10:55:12;28.40;49.40
24730;DHT22;12832;52.392;13.066;2023-06-22T10:57:39;28.40;49.40
24730;DHT22;12832;52.392;13.066;2023-06-22T11:00:09;28.40;50.10
24730;DHT22;12832;52.392;13.066;2023-06-22T11:02:37;28.40;49.40
24730;DHT22;12832;52.392;13.066;2023-06-22T11:05:03;28.40;49.50
24730;DHT22;12832;52.392;13.066;2023-06-22T11:07:30;28.40;49.50
24730;DHT22;12832;52.392;13.066;2023-06-22T11:09:56;28.40;49.40
24730;DHT22;12832;52.392;13.066;2023-06-22T11:12:22;28.40;49.40
24730;DHT22;12832;52.392;13.066;2023-06-22T11:14:48;28.40;49.50
24730;DHT22;12832;52.392;13.066;2023-06-22T11:17:18;28.40;49.50
24730;DHT22;12832;52.392;13.066;2023-06-22T11:19:44;28.40;49.50
24730;DHT22;12832;52.392;13.066;2023-06-22T11:22:11;28.40;49.40
24730;DHT22;12832;52.392;13.066;2023-06-22T11:24:37;28.40;49.40
24730;DHT22;12832;52.392;13.066;2023-06-22T11:27:03;28.40;49.30
24730;DHT22;12832;52.392;13.066;2023-06-22T11:29:31;28.40;49.30
24730;DHT22;12832;52.392;13.066;2023-06-22T11:32:05;28.40;49.20
24730;DHT22;12832;52.392;13.066;2023-06-22T11:34:32;28.40;49.20
24730;DHT22;12832;52.392;13.066;2023-06-22T11:36:58;28.40;49.00
24730;DHT22;12832;52.392;13.066;2023-06-22T11:39:25;28.40;49.10
24730;DHT22;12832;52.392;13.066;2023-06-22T11:42:07;28.50;49.10
24730;DHT22;12832;52.392;13.066;2023-06-22T11:44:33;28.40;49.00
24730;DHT22;12832;52.392;13.066;2023-06-22T11:47:00;28.40;49.00
24730;DHT22;12832;52.392;13.066;2023-06-22T11:49:27;28.40;49.00
24730;DHT22;12832;52.392;13.066;2023-06-22T11:51:53;28.40;49.10
24730;DHT22;12832;52.392;13.066;2023-06-22T11:54:19;28.40;49.10
24730;DHT22;12832;52.392;13.066;2023-06-22T11:56:45;28.40;49.20
24730;DHT22;12832;52.392;13.066;2023-06-22T11:59:12;28.40;49.20
24730;DHT22;12832;52.392;13.066;2023-06-22T12:01:38;28.40;49.30
24730;DHT22;12832;52.392;13.066;2023-06-22T12:04:04;28.40;49.30
24730;DHT22;12832;52.392;13.066;2023-06-22T12:06:32;28.40;49.20
24730;DHT22;12832;52.392;13.066;2023-06-22T12:08:59;28.40;49.20
24730;DHT22;12832;52.392;13.066;2023-06-22T12:11:25;28.40;49.30
24730;DHT22;12832;52.392;13.066;2023-06-22T12:13:52;28.40;49.30
24730;DHT22;12832;52.392;13.066;2023-06-22T12:16:18;28.40;50.00
24730;DHT22;12832;52.392;13.066;2023-06-22T12:18:44;28.40;49.40
24730;DHT22;12832;52.392;13.066;2023-06-22T12:21:10;28.40;49.50
24730;DHT22;12832;52.392;13.066;2023-06-22T12:23:36;28.40;49.40
24730;DHT22;12832;52.392;13.066;2023-06-22T12:26:03;28.40;49.50
24730;DHT22;12832;52.392;13.066;2023-06-22T12:28:29;28.40;49.50
24730;DHT22;12832;52.392;13.066;2023-06-22T12:30:55;28.40;49.50
24730;DHT22;12832;52.392;13.066;2023-06-22T12:33:21;28.40;49.40
24730;DHT22;12832;52.392;13.066;2023-06-22T12:35:48;28.40;49.40
24730;DHT22;12832;52.392;13.066;2023-06-22T12:38:15;28.40;49.30
24730;DHT22;12832;52.392;13.066;2023-06-22T12:40:41;28.40;49.30
24730;DHT22;12832;52.392;13.066;2023-06-22T12:43:07;28.40;49.20
24730;DHT22;12832;52.392;13.066;2023-06-22T12:45:33;28.40;49.20
24730;DHT22;12832;52.392;13.066;2023-06-22T12:48:00;28.40;49.10
24730;DHT22;12832;52.392;13.066;2023-06-22T12:50:27;28.40;49.10
24730;DHT22;12832;52.392;13.066;2023-06-22T12:52:54;28.40;49.00
24730;DHT22;12832;52.392;13.066;2023-06-22T12:55:20;28.40;49.00
24730;DHT22;12832;52.392;13.066;2023-06-22T12:57:50;28.40;49.00
24730;DHT22;12832;52.392;13.066;2023-06-22T13:00:17;28.40;49.00
24730;DHT22;12832;52.392;13.066;2023-06-22T13:02:43;28.40;49.00
24730;DHT22;12832;52.392;13.066;2023-06-22T13:05:09;28.50;49.00
24730;DHT22;12832;52.392;13.066;2023-06-22T13:07:36;28.40;49.00
24730;DHT22;12832;52.392;13.066;2023-06-22T13:10:02;28.50;49.00
24730;DHT22;12832;52.392;13.066;2023-06-22T13:12:28;28.40;48.90
24730;DHT22;12832;52.392;13.066;2023-06-22T13:14:55;28.50;48.90
24730;DHT22;12832;52.392;13.066;2023-06-22T13:17:21;28.50;48.80
24730;DHT22;12832;52.392;13.066;2023-06-22T13:19:47;28.40;48.90
24730;DHT22;12832;52.392;13.066;2023-06-22T13:22:33;28.40;48.80
24730;DHT22;12832;52.392;13.066;2023-06-22T13:25:06;28.40;48.90
24730;DHT22;12832;52.392;13.066;2023-06-22T13:27:32;28.40;48.80
24730;DHT22;12832;52.392;13.066;2023-06-22T13:29:58;28.40;48.90
24730;DHT22;12832;52.392;13.066;2023-06-22T13:32:25;28.40;48.80
24730;DHT22;12832;52.392;13.066;2023-06-22T13:34:52;28.40;48.80
24730;DHT22;12832;52.392;13.066;2023-06-22T13:37:18;28.40;48.90
24730;DHT22;12832;52.392;13.066;2023-06-22T13:39:45;28.40;48.90
24730;DHT22;12832;52.392;13.066;2023-06-22T13:42:11;28.40;48.90
24730;DHT22;12832;52.392;13.066;2023-06-22T13:44:37;28.50;49.00
24730;DHT22;12832;52.392;13.066;2023-06-22T13:47:04;28.40;48.90
24730;DHT22;12832;52.392;13.066;2023-06-22T13:49:30;28.40;48.90
24730;DHT22;12832;52.392;13.066;2023-06-22T13:51:57;28.50;48.80
24730;DHT22;12832;52.392;13.066;2023-06-22T13:54:23;28.50;48.90
24730;DHT22;12832;52.392;13.066;2023-06-22T13:56:56;28.40;48.80
24730;DHT22;12832;52.392;13.066;2023-06-22T13:59:22;28.50;48.80
24730;DHT22;12832;52.392;13.066;2023-06-22T14:01:48;28.40;48.80
24730;DHT22;12832;52.392;13.066;2023-06-22T14:04:15;28.40;48.80
24730;DHT22;12832;52.392;13.066;2023-06-22T14:06:41;28.50;48.80
24730;DHT22;12832;52.392;13.066;2023-06-22T14:09:07;28.50;48.80
24730;DHT22;12832;52.392;13.066;2023-06-22T14:11:33;28.40;48.80
24730;DHT22;12832;52.392;13.066;2023-06-22T14:14:00;28.50;48.90
24730;DHT22;12832;52.392;13.066;2023-06-22T14:16:26;28.50;48.90
24730;DHT22;12832;52.392;13.066;2023-06-22T14:18:52;28.50;48.90
24730;DHT22;12832;52.392;13.066;2023-06-22T14:21:21;28.50;49.00
24730;DHT22;12832;52.392;13.066;2023-06-22T14:23:47;28.50;48.90
24730;DHT22;12832;52.392;13.066;2023-06-22T14:26:15;28.50;48.90
24730;DHT22;12832;52.392;13.066;2023-06-22T14:28:48;28.50;48.80
24730;DHT22;12832;52.392;13.066;2023-06-22T14:31:17;28.50;48.90
24730;DHT22;12832;52.392;13.066;2023-06-22T14:33:46;28.50;48.90
24730;DHT22;12832;52.392;13.066;2023-06-22T14:36:14;28.50;48.80
24730;DHT22;12832;52.392;13.066;2023-06-22T14:38:45;28.50;48.80
24730;DHT22;12832;52.392;13.066;2023-06-22T14:41:12;28.50;48.80
24730;DHT22;12832;52.392;13.066;2023-06-22T14:43:45;28.50;48.80
24730;DHT22;12832;52.392;13.066;2023-06-22T14:46:12;28.50;48.80
24730;DHT22;12832;52.392;13.066;2023-06-22T14:48:38;28.50;48.80
24730;DHT22;12832;52.392;13.066;2023-06-22T14:51:04;28.50;48.80
24730;DHT22;12832;52.392;13.066;2023-06-22T14:53:31;28.50;48.80
24730;DHT22;12832;52.392;13.066;2023-06-22T14:55:57;28.50;48.80
24730;DHT22;12832;52.392;13.066;2023-06-22T14:58:23;28.50;48.70
24730;DHT22;12832;52.392;13.066;2023-06-22T15:00:49;28.50;48.60
24730;DHT22;12832;52.392;13.066;2023-06-22T15:03:16;28.50;48.60
24730;DHT22;12832;52.392;13.066;2023-06-22T15:05:47;28.50;48.60
24730;DHT22;12832;52.392;13.066;2023-06-22T15:08:13;28.50;48.40
24730;DHT22;12832;52.392;13.066;2023-06-22T15:10:40;28.50;48.40
24730;DHT22;12832;52.392;13.066;2023-06-22T15:13:06;28.50;48.40
24730;DHT22;12832;52.392;13.066;2023-06-22T15:15:32;28.50;48.30
24730;DHT22;12832;52.392;13.066;2023-06-22T15:17:59;28.50;48.30
24730;DHT22;12832;52.392;13.066;2023-06-22T15:20:25;28.50;48.30